Time;durP1;ratioP1;P1;durP2;ratioP2;P2;SDS_P1;SDS_P2;PMS_P1;PMS_P2;Temp;Humidity;BMP_temperature;BMP_pressure;BME280_temperature;BME280_humidity;BME280_pressure;Samples;Min_cycle;Max_cycle;Signal;HPM_P1;HPM_P2
2022/02/19 00:01:02;;;;;;;2.63;0.93;;;;;;;6.32;54.41;98559.88;5030715;28;20619;-72
2022/02/19 00:03:27;;;;;;;1.80;1.00;;;;;;;6.34;54.44;98530.50;5030437;28;20383;-73
2022/02/19 00:05:52;;;;;;;5.80;1.90;;;;;;;6.25;55.20;98541.44;5031990;28;20222;-73
2022/02/19 00:08:18;;;;;;;4.50;1.37;;;;;;;6.31;54.53;98539.31;5034758;28;20183;-73
2022/02/19 00:10:43;;;;;;;4.07;1.10;;;;;;;6.25;55.23;98533.31;5034714;28;20237;-73
2022/02/19 00:13:09;;;;;;;6.43;1.83;;;;;;;6.29;54.98;98553.19;5049971;28;20222;-72
2022/02/19 00:15:35;;;;;;;16.00;1.67;;;;;;;6.21;55.73;98568.38;5034462;28;20188;-73
2022/02/19 00:18:00;;;;;;;4.63;1.33;;;;;;;6.19;55.96;98540.81;5034641;28;20172;-72
2022/02/19 00:20:26;;;;;;;2.63;1.00;;;;;;;6.15;56.27;98558.06;5034613;28;20179;-72
2022/02/19 00:22:51;;;;;;;3.70;1.30;;;;;;;6.19;55.76;98551.66;5034533;28;20172;-72
2022/02/19 00:25:16;;;;;;;7.13;2.10;;;;;;;6.20;55.64;98542.41;5034210;28;20210;-73
2022/02/19 00:27:44;;;;;;;7.23;1.83;;;;;;;6.17;56.17;98553.13;5034241;28;20187;-72
2022/02/19 00:30:10;;;;;;;5.83;2.10;;;;;;;6.14;56.29;98551.06;5034507;28;20172;-72
2022/02/19 00:32:36;;;;;;;7.33;1.50;;;;;;;6.09;56.53;98567.53;5049633;28;20207;-72
2022/02/19 00:35:02;;;;;;;11.53;1.93;;;;;;;6.15;56.51;98552.66;5034087;28;20253;-73
2022/02/19 00:37:27;;;;;;;3.87;1.43;;;;;;;6.20;55.88;98555.16;5034607;28;20627;-73
2022/02/19 00:39:52;;;;;;;2.03;1.40;;;;;;;6.15;56.42;98568.91;5034046;28;20188;-72
2022/02/19 00:42:18;;;;;;;3.97;1.43;;;;;;;6.16;56.54;98562.38;5033040;28;20176;-72
2022/02/19 00:44:43;;;;;;;7.33;1.60;;;;;;;6.12;56.91;98602.13;5033853;28;20207;-72
2022/02/19 00:47:08;;;;;;;3.07;1.73;;;;;;;6.19;55.96;98577.97;5034128;28;20182;-72
2022/02/19 00:49:34;;;;;;;2.07;1.87;;;;;;;6.16;56.05;98579.44;5033993;28;20172;-72
2022/02/19 00:51:59;;;;;;;2.77;1.40;;;;;;;6.13;56.39;98557.63;5049216;28;20207;-73
2022/02/19 00:54:24;;;;;;;5.80;1.83;;;;;;;6.15;56.22;98587.91;5034001;28;20179;-71
2022/02/19 00:56:50;;;;;;;4.63;0.83;;;;;;;6.11;55.93;98568.00;5033608;28;20187;-73
2022/02/19 00:59:15;;;;;;;2.13;1.07;;;;;;;6.03;57.01;98591.31;5033834;28;20176;-72
2022/02/19 01:01:41;;;;;;;4.53;1.30;;;;;;;6.08;55.86;98565.94;5033701;28;20188;-73
2022/02/19 01:04:06;;;;;;;2.83;1.40;;;;;;;6.07;55.78;98588.72;5033758;28;20235;-72
2022/02/19 01:06:32;;;;;;;7.53;1.40;;;;;;;6.01;55.98;98579.22;5033860;28;20195;-71
2022/02/19 01:08:58;;;;;;;3.33;1.30;;;;;;;5.89;57.16;98542.72;5033690;28;20570;-72
2022/02/19 01:11:23;;;;;;;6.17;1.50;;;;;;;5.95;56.23;98590.25;5033869;28;20254;-71
2022/02/19 01:13:49;;;;;;;3.57;1.57;;;;;;;5.95;56.09;98633.59;5033587;28;20259;-71
2022/02/19 01:16:15;;;;;;;4.57;1.30;;;;;;;5.91;56.53;98604.75;5033017;28;20653;-72
2022/02/19 01:18:41;;;;;;;5.27;0.70;;;;;;;5.85;56.89;98639.34;5048032;28;20467;-72
2022/02/19 01:21:06;;;;;;;11.37;2.40;;;;;;;5.85;56.79;98623.09;5033482;28;20203;-72
2022/02/19 01:23:31;;;;;;;2.87;1.23;;;;;;;5.85;56.47;98642.06;5033532;28;20261;-72
2022/02/19 01:25:56;;;;;;;2.10;1.13;;;;;;;5.80;56.98;98626.00;5033500;28;20202;-71
2022/02/19 01:28:22;;;;;;;0.20;0.10;;;;;;;5.74;57.17;98654.34;5033351;28;20226;-72
2022/02/19 01:30:47;;;;;;;5.30;1.13;;;;;;;5.64;58.16;98625.72;5033219;28;20187;-72
2022/02/19 01:33:13;;;;;;;3.93;1.43;;;;;;;5.65;57.70;98650.91;5033104;28;20690;-71
2022/02/19 01:35:38;;;;;;;2.43;0.87;;;;;;;5.62;57.63;98736.28;5032711;28;20188;-72
2022/02/19 01:38:04;;;;;;;3.60;1.17;;;;;;;5.56;58.28;98683.41;5033193;28;20205;-72
2022/02/19 01:40:30;;;;;;;2.80;1.83;;;;;;;5.57;58.37;98659.81;5033199;28;20180;-72
2022/02/19 01:42:56;;;;;;;4.73;1.90;;;;;;;5.56;57.58;98667.16;5033067;28;20563;-73
2022/02/19 01:45:21;;;;;;;3.13;1.00;;;;;;;5.63;57.29;98680.19;5032650;28;20212;-72
2022/02/19 01:47:46;;;;;;;6.00;1.90;;;;;;;5.55;58.25;98699.97;5033360;28;20168;-72
2022/02/19 01:50:13;;;;;;;2.20;1.20;;;;;;;5.49;58.60;98723.72;5032946;28;20422;-72
2022/02/19 01:52:40;;;;;;;4.10;1.10;;;;;;;5.49;58.47;98703.97;5032846;28;20217;-71
2022/02/19 01:55:07;;;;;;;2.83;0.90;;;;;;;5.45;58.56;98730.91;5032710;28;20172;-72
2022/02/19 01:57:32;;;;;;;2.40;0.70;;;;;;;5.44;58.56;98747.47;5032705;28;20201;-72
2022/02/19 01:59:58;;;;;;;6.37;1.67;;;;;;;5.40;58.85;98700.47;5032778;28;20259;-72
2022/02/19 02:02:24;;;;;;;1.53;0.90;;;;;;;5.48;58.18;98686.13;5032490;28;20184;-72
2022/02/19 02:04:50;;;;;;;5.80;0.93;;;;;;;5.36;59.00;98689.50;5032450;28;20283;-72
2022/02/19 02:07:16;;;;;;;9.13;1.60;;;;;;;5.37;59.14;98727.09;5032570;28;20176;-72
2022/02/19 02:09:42;;;;;;;2.10;1.10;;;;;;;5.39;58.66;98713.22;5032528;28;20172;-72
2022/02/19 02:12:08;;;;;;;1.20;0.53;;;;;;;5.40;58.43;98695.88;5032711;28;20172;-72
2022/02/19 02:14:41;;;;;;;3.63;1.53;;;;;;;5.45;58.20;98721.97;5047693;28;20543;-72
2022/02/19 02:17:08;;;;;;;2.93;0.90;;;;;;;5.35;59.52;98694.13;5032485;28;20514;-72
2022/02/19 02:19:35;;;;;;;2.77;0.80;;;;;;;5.33;59.64;98719.91;5032679;28;20176;-71
2022/02/19 02:22:02;;;;;;;2.93;1.07;;;;;;;5.34;60.14;98700.63;5032350;28;20168;-72
2022/02/19 02:24:32;;;;;;;6.47;1.20;;;;;;;5.35;60.42;98729.31;5032066;28;20264;-72
2022/02/19 02:26:59;;;;;;;14.40;1.70;;;;;;;5.37;60.05;98716.25;5030818;28;20179;-72
2022/02/19 02:29:24;;;;;;;8.17;1.27;;;;;;;5.36;60.36;98747.16;5031685;28;20548;-72
2022/02/19 02:31:49;;;;;;;7.83;2.43;;;;;;;5.38;60.15;98742.22;5031918;28;20172;-72
2022/02/19 02:34:15;;;;;;;5.87;1.20;;;;;;;5.42;60.21;98734.25;5032050;28;20262;-71
2022/02/19 02:36:40;;;;;;;2.73;1.03;;;;;;;5.39;60.14;98740.31;5031821;28;20172;-71
2022/02/19 02:39:05;;;;;;;3.73;1.17;;;;;;;5.38;60.19;98747.63;5033648;28;20176;-72
2022/02/19 02:41:31;;;;;;;2.13;0.90;;;;;;;5.37;60.25;98718.97;5038539;28;20232;-72
2022/02/19 02:43:56;;;;;;;1.50;1.20;;;;;;;5.36;60.49;98728.22;5045426;28;20202;-72
2022/02/19 02:46:22;;;;;;;3.40;0.33;;;;;;;5.30;61.15;98745.72;5042376;28;20237;-73
2022/02/19 02:48:47;;;;;;;40.07;2.57;;;;;;;5.29;60.96;98743.31;5031936;28;20636;-72
2022/02/19 02:51:12;;;;;;;3.10;1.10;;;;;;;5.31;61.20;98738.38;5032139;28;20172;-72
2022/02/19 02:53:38;;;;;;;2.77;0.97;;;;;;;5.28;61.24;98756.06;5031812;28;20180;-72
2022/02/19 02:56:03;;;;;;;5.73;1.10;;;;;;;5.23;61.81;98758.13;5031413;28;20309;-72
2022/02/19 02:58:29;;;;;;;6.03;1.03;;;;;;;5.17;62.78;98770.22;5031699;28;20270;-72
2022/02/19 03:00:54;;;;;;;2.23;0.90;;;;;;;5.04;64.15;98782.78;5031715;28;20180;-72
2022/02/19 03:03:19;;;;;;;8.20;1.43;;;;;;;4.95;65.25;98793.59;5031415;28;20270;-71
2022/02/19 03:05:45;;;;;;;5.10;1.03;;;;;;;4.85;65.95;98755.22;5031335;28;20179;-73
2022/02/19 03:08:10;;;;;;;7.63;1.50;;;;;;;4.66;67.72;98804.97;5031366;28;20673;-71
2022/02/19 03:10:36;;;;;;;3.10;1.47;;;;;;;4.57;69.29;98823.06;5031443;28;20176;-73
2022/02/19 03:13:02;;;;;;;0.97;0.93;;;;;;;4.55;69.38;98781.22;5031370;28;20174;-72
2022/02/19 03:15:27;;;;;;;1.90;1.33;;;;;;;4.59;69.25;98826.25;5031135;28;20468;-71
2022/02/19 03:17:52;;;;;;;8.10;1.13;;;;;;;4.67;68.46;98838.22;5031713;28;20255;-72
2022/02/19 03:20:22;;;;;;;3.33;1.43;;;;;;;4.45;70.10;98774.97;5031521;28;20180;-72
2022/02/19 03:22:48;;;;;;;1.87;0.90;;;;;;;4.31;72.34;98827.53;5031349;28;20183;-71
2022/02/19 03:25:15;;;;;;;2.43;2.07;;;;;;;4.24;73.03;98800.16;5031305;28;20203;-71
2022/02/19 03:27:42;;;;;;;7.23;1.63;;;;;;;4.14;74.66;98906.59;5046332;28;20565;-72
2022/02/19 03:30:09;;;;;;;5.53;1.60;;;;;;;4.06;75.32;98805.47;5031420;28;20207;-72
2022/02/19 03:32:35;;;;;;;4.97;1.50;;;;;;;4.08;75.79;98843.00;5031031;28;20180;-73
2022/02/19 03:35:01;;;;;;;3.60;1.27;;;;;;;4.11;75.54;98840.47;5030885;28;20178;-71
2022/02/19 03:37:26;;;;;;;6.40;2.13;;;;;;;4.09;75.76;98842.69;5030922;28;20175;-71
2022/02/19 03:39:52;;;;;;;9.20;2.30;;;;;;;4.01;76.67;98846.09;5030366;28;20542;-71
2022/02/19 03:42:17;;;;;;;3.77;1.30;;;;;;;3.89;78.07;98845.84;5030772;28;20352;-71
2022/02/19 03:44:43;;;;;;;1.53;1.30;;;;;;;3.83;78.89;98820.06;5030581;28;20212;-71
2022/02/19 03:47:08;;;;;;;3.30;0.50;;;;;;;4.02;77.66;98869.31;5030789;28;20186;-71
2022/02/19 03:49:33;;;;;;;3.77;1.87;;;;;;;4.09;76.82;98856.19;5030769;28;20238;-71
2022/02/19 03:51:59;;;;;;;8.10;1.53;;;;;;;4.18;76.05;98881.34;5030628;28;20180;-73
2022/02/19 03:54:24;;;;;;;2.50;1.30;;;;;;;4.39;73.35;98878.97;5030874;28;20210;-72
2022/02/19 03:56:49;;;;;;;11.67;1.43;;;;;;;4.48;72.11;98901.44;5030661;28;20203;-73
2022/02/19 03:59:16;;;;;;;3.63;1.60;;;;;;;4.40;73.33;98904.88;5046323;28;20550;-72
2022/02/19 04:01:42;;;;;;;5.13;1.10;;;;;;;4.40;72.52;98914.91;5030666;28;20207;-73
2022/02/19 04:04:07;;;;;;;10.00;1.00;;;;;;;4.32;73.92;98921.84;5030568;28;20196;-73
2022/02/19 04:06:33;;;;;;;2.13;1.13;;;;;;;4.36;73.19;98927.44;5030523;28;20172;-73
2022/02/19 04:08:59;;;;;;;5.40;1.77;;;;;;;4.32;73.98;98907.53;5030726;28;20207;-72
2022/02/19 04:11:25;;;;;;;1.87;0.93;;;;;;;4.16;75.10;98955.75;5030622;28;20628;-72
2022/02/19 04:13:50;;;;;;;5.60;1.63;;;;;;;4.10;75.98;98995.59;5030550;28;20211;-73
2022/02/19 04:16:15;;;;;;;8.57;1.73;;;;;;;4.00;77.67;99005.81;5030485;28;20187;-72
2022/02/19 04:18:41;;;;;;;2.47;1.20;;;;;;;3.77;80.36;99004.97;5030827;28;20685;-73
2022/02/19 04:21:07;;;;;;;6.37;1.87;;;;;;;3.58;82.75;98978.88;5046210;28;20168;-72
2022/02/19 04:23:33;;;;;;;8.37;1.50;;;;;;;3.47;85.04;99014.47;5030354;28;20666;-72
2022/02/19 04:25:59;;;;;;;2.40;1.23;;;;;;;3.33;87.47;99054.97;5030313;28;20215;-72
2022/02/19 04:28:26;;;;;;;2.63;1.63;;;;;;;3.13;90.06;99039.13;5045967;28;20176;-73
2022/02/19 04:30:52;;;;;;;1.80;1.10;;;;;;;3.04;92.17;99051.69;5032034;28;20470;-72
2022/02/19 04:33:17;;;;;;;8.30;1.53;;;;;;;2.92;94.05;99063.75;5037685;28;20655;-73
2022/02/19 04:35:45;;;;;;;12.67;1.30;;;;;;;2.80;96.28;99066.09;5030466;28;20180;-72
2022/02/19 04:38:12;;;;;;;3.63;1.90;;;;;;;2.79;97.69;99082.59;5030704;28;20291;-73
2022/02/19 04:40:38;;;;;;;6.07;1.70;;;;;;;2.83;97.55;99052.03;5030620;28;20624;-73
2022/02/19 04:43:04;;;;;;;5.10;1.50;;;;;;;2.86;97.42;99088.38;5030821;28;20186;-72
2022/02/19 04:45:29;;;;;;;3.47;1.37;;;;;;;2.89;97.49;99075.13;5030504;28;20294;-72
2022/02/19 04:47:55;;;;;;;5.13;1.20;;;;;;;2.93;97.46;99115.81;5030405;28;20585;-72
2022/02/19 04:50:21;;;;;;;0.70;0.37;;;;;;;2.92;97.86;99111.50;5029048;28;20179;-72
2022/02/19 04:52:46;;;;;;;9.33;2.17;;;;;;;2.85;98.12;99109.16;5048363;28;20172;-72
2022/02/19 04:55:13;;;;;;;2.33;1.70;;;;;;;2.75;98.93;99122.00;5033847;28;20184;-72
2022/02/19 04:57:43;;;;;;;2.77;1.37;;;;;;;2.80;99.03;99117.34;5033748;28;20275;-72
2022/02/19 05:00:12;;;;;;;4.23;1.27;;;;;;;2.81;99.07;99124.34;5033950;28;20258;-72
2022/02/19 05:02:38;;;;;;;5.23;2.10;;;;;;;2.85;98.54;99129.94;5049115;28;20549;-72
2022/02/19 05:05:04;;;;;;;8.60;1.40;;;;;;;2.87;98.32;99128.56;5048817;28;20249;-72
2022/02/19 05:07:29;;;;;;;0.70;0.60;;;;;;;2.91;97.79;99143.06;5033728;28;20720;-72
2022/02/19 05:09:54;;;;;;;3.20;1.40;;;;;;;2.94;96.83;99168.66;5033700;28;20171;-72
2022/02/19 05:12:20;;;;;;;4.23;1.57;;;;;;;3.00;95.49;99167.47;5033809;28;20179;-72
2022/02/19 05:14:45;;;;;;;3.43;1.43;;;;;;;3.01;95.68;99147.50;5033554;28;20176;-74
2022/02/19 05:17:11;;;;;;;6.90;1.93;;;;;;;2.95;96.36;99176.47;5033875;28;20176;-73
2022/02/19 05:19:36;;;;;;;8.70;1.60;;;;;;;3.01;95.88;99173.66;5033426;28;20224;-72
2022/02/19 05:22:01;;;;;;;2.33;1.33;;;;;;;2.99;96.17;99203.66;5033445;28;20258;-72
2022/02/19 05:24:26;;;;;;;4.17;1.60;;;;;;;3.08;95.19;99214.59;5033399;28;20192;-72
2022/02/19 05:26:52;;;;;;;2.73;1.53;;;;;;;3.02;95.71;99197.66;5033218;28;20177;-72
2022/02/19 05:29:17;;;;;;;2.83;1.07;;;;;;;3.01;95.76;99211.44;5033339;28;20172;-72
2022/02/19 05:31:42;;;;;;;5.80;2.13;;;;;;;2.97;96.29;99265.19;5048593;28;20685;-71
2022/02/19 05:34:08;;;;;;;6.33;1.80;;;;;;;2.92;96.50;99255.28;5048596;28;20212;-71
2022/02/19 05:36:33;;;;;;;22.03;1.47;;;;;;;2.83;97.58;99224.63;5033295;28;20167;-71
2022/02/19 05:39:02;;;;;;;7.23;1.93;;;;;;;2.84;98.31;99238.91;5033220;28;20176;-73
2022/02/19 05:41:28;;;;;;;8.33;1.27;;;;;;;2.87;97.98;99238.34;5033276;28;20255;-72
2022/02/19 05:43:53;;;;;;;3.43;1.13;;;;;;;2.92;97.63;99249.06;5032988;28;20299;-72
2022/02/19 05:46:18;;;;;;;4.77;1.70;;;;;;;2.94;96.71;99236.09;5032755;28;20179;-72
2022/02/19 05:48:44;;;;;;;4.47;0.80;;;;;;;2.96;96.37;99267.09;5031737;28;20168;-72
2022/02/19 05:51:09;;;;;;;3.90;1.43;;;;;;;3.12;94.38;99242.59;5032901;28;20658;-73
2022/02/19 05:53:34;;;;;;;3.80;1.80;;;;;;;3.23;92.24;99269.16;5033184;28;20226;-72
2022/02/19 05:56:01;;;;;;;1.40;0.83;;;;;;;3.30;90.25;99274.16;5032614;28;20202;-72
2022/02/19 05:58:26;;;;;;;6.87;1.63;;;;;;;3.42;88.77;99269.13;5032767;28;20172;-72
2022/02/19 06:00:52;;;;;;;0.97;0.63;;;;;;;3.51;87.13;99286.28;5032688;28;20645;-72
2022/02/19 06:03:17;;;;;;;1.33;0.70;;;;;;;3.54;85.99;99293.78;5031848;28;20168;-72
2022/02/19 06:05:42;;;;;;;1.53;0.47;;;;;;;3.72;83.70;99315.66;5032428;28;20209;-72
2022/02/19 06:08:08;;;;;;;5.20;1.77;;;;;;;3.75;82.38;99279.97;5032605;28;20172;-72
2022/02/19 06:10:33;;;;;;;1.93;1.13;;;;;;;3.82;81.46;99299.31;5032929;28;20180;-72
2022/02/19 06:12:59;;;;;;;1.37;0.93;;;;;;;3.86;80.26;99300.31;5031145;28;20175;-72
2022/02/19 06:15:24;;;;;;;1.37;1.27;;;;;;;3.92;79.66;99311.84;5032212;28;20517;-72
2022/02/19 06:17:49;;;;;;;1.93;0.97;;;;;;;3.95;79.46;99306.66;5047739;28;20214;-73
2022/02/19 06:20:14;;;;;;;6.50;1.07;;;;;;;4.12;76.33;99325.81;5032300;28;20182;-72
2022/02/19 06:22:40;;;;;;;1.10;0.73;;;;;;;4.14;76.47;99328.22;5032547;28;20171;-73
2022/02/19 06:25:06;;;;;;;2.77;1.90;;;;;;;4.16;76.16;99328.72;5032240;28;20233;-73
2022/02/19 06:27:31;;;;;;;7.47;2.03;;;;;;;4.21;75.28;99374.63;5047445;28;20639;-72
2022/02/19 06:29:58;;;;;;;0.97;0.70;;;;;;;4.18;75.13;99362.47;5032413;28;20178;-72
2022/02/19 06:32:26;;;;;;;0.23;0.23;;;;;;;4.18;75.57;99346.25;5031277;28;20192;-72
2022/02/19 06:34:51;;;;;;;5.40;1.30;;;;;;;4.19;74.99;99368.69;5038146;28;20562;-73
2022/02/19 06:37:18;;;;;;;7.20;1.00;;;;;;;4.18;75.35;99377.88;5043056;28;20233;-73
2022/02/19 06:39:44;;;;;;;1.10;0.50;;;;;;;4.20;74.66;99377.63;5031987;28;20658;-73
2022/02/19 06:42:09;;;;;;;0.60;0.60;;;;;;;4.26;74.10;99377.22;5031875;28;20260;-72
2022/02/19 06:44:35;;;;;;;6.10;1.20;;;;;;;4.28;73.72;99388.53;5031675;28;20295;-73
2022/02/19 06:47:00;;;;;;;1.87;1.00;;;;;;;4.28;73.19;99412.88;5031714;28;20183;-73
2022/02/19 06:49:25;;;;;;;2.70;0.90;;;;;;;4.23;73.50;99410.25;5047124;28;20750;-73
2022/02/19 06:51:51;;;;;;;3.27;1.10;;;;;;;4.20;73.45;99404.66;5031698;28;20168;-75
2022/02/19 06:54:16;;;;;;;2.73;1.10;;;;;;;4.20;72.92;99397.34;5031667;28;20176;-73
2022/02/19 06:56:41;;;;;;;1.63;0.60;;;;;;;4.18;72.73;99415.72;5031214;28;20568;-72
2022/02/19 06:59:07;;;;;;;7.30;0.93;;;;;;;4.26;71.77;99416.97;5031637;28;20176;-73
2022/02/19 07:01:33;;;;;;;5.00;1.43;;;;;;;4.17;72.06;99425.75;5031497;28;20298;-74
2022/02/19 07:03:58;;;;;;;2.13;0.97;;;;;;;4.15;71.92;99436.03;5031394;28;20287;-72
2022/02/19 07:06:24;;;;;;;2.80;0.73;;;;;;;4.18;71.50;99435.44;5046715;28;20267;-73
2022/02/19 07:08:50;;;;;;;2.50;0.93;;;;;;;4.18;71.65;99470.59;5031559;28;20540;-72
2022/02/19 07:11:16;;;;;;;1.10;0.63;;;;;;;4.16;71.66;99464.69;5031375;28;20183;-74
2022/02/19 07:13:41;;;;;;;11.03;2.10;;;;;;;4.12;71.89;99476.38;5046725;28;20186;-73
2022/02/19 07:16:07;;;;;;;2.57;0.73;;;;;;;4.15;71.18;99475.78;5031215;28;20200;-73
2022/02/19 07:18:32;;;;;;;0.83;0.53;;;;;;;4.26;69.77;99489.97;5031271;28;20176;-73
2022/02/19 07:20:58;;;;;;;2.33;1.30;;;;;;;4.24;70.16;99501.06;5046532;28;20338;-73
2022/02/19 07:23:23;;;;;;;3.80;1.13;;;;;;;4.20;70.45;99524.38;5031165;28;20572;-74
2022/02/19 07:25:49;;;;;;;6.07;1.07;;;;;;;4.24;69.97;99528.09;5031111;28;20605;-74
2022/02/19 07:28:14;;;;;;;1.80;1.00;;;;;;;4.22;70.03;99516.78;5030992;28;20172;-73
2022/02/19 07:30:39;;;;;;;7.73;0.93;;;;;;;4.22;70.32;99524.91;5031141;28;20183;-73
2022/02/19 07:33:10;;;;;;;4.17;0.77;;;;;;;4.25;69.92;99543.22;5031064;28;20540;-74
2022/02/19 07:35:36;;;;;;;4.83;1.07;;;;;;;4.26;69.50;99552.16;5030835;28;20180;-73
2022/02/19 07:38:02;;;;;;;7.33;0.90;;;;;;;4.24;70.13;99548.94;5030951;28;20190;-73
2022/02/19 07:40:28;;;;;;;21.73;1.50;;;;;;;4.31;69.50;99557.47;5031291;28;20179;-73
2022/02/19 07:42:55;;;;;;;7.80;1.20;;;;;;;4.38;68.42;99550.63;5046169;28;20179;-73
2022/02/19 07:45:21;;;;;;;0.50;0.43;;;;;;;4.29;69.44;99560.47;5045924;28;20208;-76
2022/02/19 07:47:47;;;;;;;9.63;2.47;;;;;;;4.30;69.08;99572.88;5030831;28;20172;-76
2022/02/19 07:58:26;;;;;;;2.30;0.57;;;;;;;4.44;69.29;99621.66;5030997;28;20187;-75
2022/02/19 08:01:01;;;;;;;9.93;0.93;;;;;;;4.44;69.38;99602.72;5030810;28;20199;-76
2022/02/19 08:03:29;;;;;;;8.63;0.87;;;;;;;4.42;69.67;99634.66;5030613;28;20179;-76
2022/02/19 08:05:55;;;;;;;5.67;1.03;;;;;;;4.43;69.28;99599.22;5030520;28;20265;-76
2022/02/19 08:08:21;;;;;;;4.03;0.93;;;;;;;4.42;70.00;99634.66;5030602;28;20180;-76
2022/02/19 08:10:47;;;;;;;3.37;1.30;;;;;;;4.41;70.82;99627.66;5030535;28;20534;-76
2022/02/19 08:13:17;;;;;;;10.17;0.60;;;;;;;4.38;72.04;99636.34;5030664;28;20218;-76
2022/02/19 08:15:43;;;;;;;2.90;0.63;;;;;;;4.43;72.15;99639.78;5030526;28;20184;-76
2022/02/19 08:18:10;;;;;;;2.00;0.90;;;;;;;4.44;72.99;99648.69;5030710;28;20180;-76
2022/02/19 08:20:38;;;;;;;1.37;1.00;;;;;;;4.47;73.50;99667.84;5030908;28;20184;-75
2022/02/19 08:23:06;;;;;;;1.97;0.90;;;;;;;4.52;73.02;99675.13;5030288;28;20635;-76
2022/02/19 08:25:33;;;;;;;1.73;1.17;;;;;;;4.57;72.71;99669.63;5030268;28;20619;-76
2022/02/19 08:27:58;;;;;;;19.97;2.20;;;;;;;4.51;73.10;99680.81;5033879;28;20214;-76
2022/02/19 08:30:25;;;;;;;2.43;1.30;;;;;;;4.51;72.68;99697.03;5033314;28;20207;-75
2022/02/19 08:32:50;;;;;;;5.43;1.50;;;;;;;4.57;72.94;99704.00;5034224;28;20186;-76
2022/02/19 08:35:16;;;;;;;3.80;1.70;;;;;;;4.61;72.84;99719.34;5032879;28;20262;-76
2022/02/19 08:37:42;;;;;;;9.73;2.17;;;;;;;4.61;72.93;99710.41;5034304;28;20640;-76
2022/02/19 08:40:10;;;;;;;4.60;1.53;;;;;;;4.58;72.63;99714.50;5034266;28;20190;-76
2022/02/19 08:42:36;;;;;;;5.67;1.53;;;;;;;4.54;73.70;99724.31;5034264;28;20387;-76
2022/02/19 08:45:02;;;;;;;8.50;2.30;;;;;;;4.54;73.32;99729.72;5033765;28;20223;-76
2022/02/19 08:47:28;;;;;;;6.20;1.17;;;;;;;4.52;73.37;99742.72;5034063;28;20179;-76
2022/02/19 08:49:53;;;;;;;2.10;1.30;;;;;;;4.50;74.10;99752.22;5049367;28;20225;-76
2022/02/19 08:52:19;;;;;;;10.60;2.50;;;;;;;4.51;72.80;99759.25;5033985;28;20631;-76
2022/02/19 08:54:44;;;;;;;5.17;1.77;;;;;;;4.58;71.76;99774.03;5033914;28;20579;-76
2022/02/19 08:57:09;;;;;;;26.70;1.40;;;;;;;4.60;72.92;99776.44;5033657;28;20647;-76
2022/02/19 08:59:35;;;;;;;2.00;0.70;;;;;;;4.62;72.67;99776.94;5032894;28;20180;-74
2022/02/19 09:02:00;;;;;;;4.57;1.23;;;;;;;4.57;72.18;99785.94;5033765;28;20226;-74
2022/02/19 09:04:25;;;;;;;12.20;1.53;;;;;;;4.57;72.63;99785.94;5034038;28;20200;-76
2022/02/19 09:06:51;;;;;;;3.30;1.73;;;;;;;4.55;71.92;99784.63;5033807;28;20207;-76
2022/02/19 09:09:16;;;;;;;5.80;1.17;;;;;;;4.54;72.66;99800.03;5033938;28;20516;-75
2022/02/19 09:11:41;;;;;;;1.33;0.97;;;;;;;4.52;72.46;99787.91;5033551;28;20622;-73
2022/02/19 09:14:08;;;;;;;1.77;1.23;;;;;;;4.51;73.04;99805.22;5033540;28;20188;-73
2022/02/19 09:16:37;;;;;;;1.13;0.90;;;;;;;4.48;72.50;99814.69;5033930;28;20258;-74
2022/02/19 09:19:05;;;;;;;7.03;0.80;;;;;;;4.50;72.96;99819.84;5033543;28;20180;-73
2022/02/19 09:21:31;;;;;;;4.93;1.60;;;;;;;4.48;72.11;99822.81;5036154;28;20182;-73
2022/02/19 09:23:57;;;;;;;1.23;1.23;;;;;;;4.50;72.74;99815.25;5033289;28;20214;-73
2022/02/19 09:26:23;;;;;;;2.40;0.73;;;;;;;4.60;72.31;99823.22;5033354;28;20616;-75
2022/02/19 09:28:49;;;;;;;2.47;0.97;;;;;;;4.63;72.18;99822.69;5033287;28;20187;-73
2022/02/19 09:31:15;;;;;;;8.27;1.40;;;;;;;4.64;71.67;99858.66;5033141;28;20682;-74
2022/02/19 09:33:41;;;;;;;1.23;0.70;;;;;;;4.63;71.74;99827.25;5033319;28;20172;-73
2022/02/19 09:36:08;;;;;;;1.33;0.93;;;;;;;4.63;72.57;99835.38;5032913;28;20519;-75
2022/02/19 09:38:33;;;;;;;10.00;1.97;;;;;;;4.60;73.26;99834.06;5032080;28;20191;-74
2022/02/19 09:41:01;;;;;;;7.80;1.83;;;;;;;4.56;73.71;99846.53;5033311;28;20442;-74
2022/02/19 09:43:27;;;;;;;4.17;1.57;;;;;;;4.52;73.90;99856.34;5033196;28;20175;-74
2022/02/19 09:45:52;;;;;;;5.53;1.57;;;;;;;4.58;73.61;99873.31;5048123;28;20741;-74
2022/02/19 09:48:18;;;;;;;6.40;1.30;;;;;;;4.66;74.28;99872.69;5032266;28;20655;-74
2022/02/19 09:50:45;;;;;;;1.13;1.03;;;;;;;4.69;74.83;99881.03;5039530;28;20203;-74
2022/02/19 09:53:11;;;;;;;0.63;0.63;;;;;;;4.60;74.04;99871.13;5036791;28;20172;-74
2022/02/19 09:55:37;;;;;;;5.33;1.77;;;;;;;4.66;74.77;99886.22;5032494;28;20263;-73
2022/02/19 09:58:04;;;;;;;5.07;1.77;;;;;;;4.62;74.91;99864.31;5032301;28;20293;-74
2022/02/19 10:00:43;;;;;;;1.83;0.77;;;;;;;4.51;75.44;99865.53;5032938;28;20180;-72
2022/02/19 10:03:21;;;;;;;14.37;2.03;;;;;;;4.42;75.98;99878.88;5032853;28;20257;-72
2022/02/19 10:05:47;;;;;;;1.83;1.37;;;;;;;4.44;76.47;99889.41;5032561;28;20196;-73
2022/02/19 10:08:12;;;;;;;2.50;1.90;;;;;;;4.40;75.91;99888.34;5048066;28;20718;-72
2022/02/19 10:10:49;;;;;;;7.57;2.27;;;;;;;4.36;76.23;99885.41;5032840;28;20193;-71
2022/02/19 10:13:33;;;;;;;3.70;2.10;;;;;;;4.36;75.75;99885.41;5032636;28;20180;-71
2022/02/19 10:16:00;;;;;;;1.00;0.93;;;;;;;4.39;76.33;99897.56;5047604;28;20187;-76
2022/02/19 10:18:29;;;;;;;1.47;1.43;;;;;;;4.44;76.20;99913.72;5032345;28;20249;-74
2022/02/19 10:21:15;;;;;;;6.83;1.20;;;;;;;4.52;74.66;99913.13;5030629;28;20172;-72
2022/02/19 10:23:47;;;;;;;3.37;2.07;;;;;;;4.61;73.71;99924.94;5032228;28;20176;-72
2022/02/19 10:26:15;;;;;;;4.30;1.67;;;;;;;4.66;73.76;99916.78;5032132;28;20602;-71
2022/02/19 10:28:56;;;;;;;1.90;1.63;;;;;;;4.73;74.36;99914.53;5032206;28;20182;-71
2022/02/19 10:31:23;;;;;;;13.47;1.30;;;;;;;4.77;72.11;99922.88;5032072;28;20221;-71
2022/02/19 10:33:48;;;;;;;2.70;2.03;;;;;;;4.85;73.33;99908.75;5032183;28;20176;-72
2022/02/19 10:36:18;;;;;;;16.60;1.60;;;;;;;4.87;72.74;99927.41;5031869;28;20230;-74
2022/02/19 10:38:54;;;;;;;6.83;1.83;;;;;;;4.94;73.54;99926.00;5031920;28;20225;-72
2022/02/19 10:41:31;;;;;;;2.60;1.50;;;;;;;4.91;71.21;99917.63;5031719;28;20171;-73
2022/02/19 10:43:56;;;;;;;11.63;2.70;;;;;;;4.96;71.34;99918.38;5031430;28;20162;-73
2022/02/19 10:46:26;;;;;;;5.30;1.73;;;;;;;5.04;71.34;99935.88;5034010;28;20180;-73
2022/02/19 10:48:52;;;;;;;1.00;0.70;;;;;;;5.10;70.50;99929.34;5011912;28;20541;-71
2022/02/19 10:51:18;;;;;;;1.53;1.23;;;;;;;5.28;70.06;99957.56;5011844;28;20172;-73
2022/02/19 10:53:55;;;;;;;1.57;1.37;;;;;;;5.41;70.49;99945.22;5012367;28;20176;-72
2022/02/19 10:56:21;;;;;;;8.10;1.43;;;;;;;5.44;69.08;99931.09;5011947;28;20518;-72
2022/02/19 10:59:05;;;;;;;1.13;0.87;;;;;;;5.42;68.77;99950.34;5012091;28;20230;-72
2022/02/19 11:01:44;;;;;;;1.13;1.03;;;;;;;5.55;68.88;99946.16;5011872;28;20263;-73
2022/02/19 11:04:12;;;;;;;2.00;1.60;;;;;;;5.39;68.20;99942.81;5011718;28;20671;-72
2022/02/19 11:06:38;;;;;;;4.17;1.13;;;;;;;5.61;69.77;99959.31;5011867;28;20173;-72
2022/02/19 11:09:05;;;;;;;2.23;1.13;;;;;;;5.57;68.47;99912.25;5011753;28;20631;-73
2022/02/19 11:11:35;;;;;;;8.33;1.30;;;;;;;5.60;68.24;99960.41;5011609;28;20689;-74
2022/02/19 11:14:05;;;;;;;4.13;0.87;;;;;;;5.59;68.00;99955.28;5023107;28;20240;-75
2022/02/19 11:16:31;;;;;;;2.80;1.30;;;;;;;5.69;68.47;99949.75;5035872;28;20234;-73
2022/02/19 11:18:57;;;;;;;1.13;0.50;;;;;;;5.70;67.89;99962.22;5051193;28;20199;-75
2022/02/19 11:21:24;;;;;;;1.47;0.97;;;;;;;5.81;68.50;99963.69;5033490;28;20207;-74
2022/02/19 11:23:52;;;;;;;1.43;1.17;;;;;;;5.79;68.32;99982.16;5046482;28;20176;-71
2022/02/19 11:26:18;;;;;;;2.57;1.60;;;;;;;5.80;68.46;99966.69;5031361;28;20267;-71
2022/02/19 11:28:45;;;;;;;7.20;0.97;;;;;;;5.60;67.83;99954.19;5031281;28;20226;-71
2022/02/19 11:31:11;;;;;;;12.83;1.10;;;;;;;5.65;67.91;99965.00;5031452;28;20274;-71
2022/02/19 11:33:39;;;;;;;2.17;0.90;;;;;;;5.59;67.96;99977.78;5046823;28;20183;-72
2022/02/19 11:36:09;;;;;;;1.60;0.73;;;;;;;5.76;66.74;99969.16;5032218;28;20191;-72
2022/02/19 11:38:47;;;;;;;0.53;0.43;;;;;;;5.97;66.93;99969.75;5038752;28;20255;-72
2022/02/19 11:41:15;;;;;;;0.83;0.30;;;;;;;5.80;67.56;99964.00;5035930;28;20191;-72
2022/02/19 11:43:44;;;;;;;4.33;1.70;;;;;;;5.56;66.83;99970.25;5031172;28;20569;-71
2022/02/19 11:46:15;;;;;;;0.20;0.20;;;;;;;5.50;68.03;99981.44;5030704;28;20187;-71